Accueil
METAR-TAF:

METAR-TAF

Aéroports :

Buochs, Suisse

latitude: 46-58-28N, longitude: 8-23-49E, altitude: 449 m

Observation

Le bulletin a été fait il y a 27 minutes, à 10:50 UTC
Vent 2 kt de ouest
Température 7°C
Humidité 93%
Pression 1014 hPa
Visibilité 10 km ou plus
Nuages fragmentés à une hauteur de 3100 ft
pluie

METAR: LSZC 251050Z AUTO 27002KT 9999 RA BKN031 07/06 Q1014

Heure: 12:17 (11:17 UTC)

Prévision

Le bulletin a été fait il y a 20 heures et 52 minutes, à 14:25 UTC
Prévision valable du 24 à 15 UTC au 24 à 24 UTC
Vent 3 kt de direction variable
Visibilité 10 km ou plus
Nuages épars à une hauteur de 10000 ft
Temporairement
du 24 à 15 UTC au 24 à 20 UTC
Visibilité 10 km ou plus
pas de nuages en-dessous de 1500 mètres et pas de cumulonimbus.

TAF: LSZC 241425Z 2415/2424 VRB03KT 9999 SCT100 TEMPO 2415/2420 CAVOK

Observations et prévisions météorologiques de plus de 4000 aéroports (messages METAR et TAF).

Les stations disponibles sont représentées par des disques jaunes et rouges sur la carte.

Passer la souris dessus pour voir le nom de la station.

Cliquer dessus pour voir les observations et prévisions météorologiques.

Pour changer de carte: cliquez sur les boutons verts avec une croix noire pour zoomer, sur le bouton vert avec un tiret pour effectuer un zoom arrière, ou sur les flèches vertes pour les cartes adjacentes.


METAR-TAF: